sensor_id;sensor_type;location;lat;lon;timestamp;P1;durP1;ratioP1;P2;durP2;ratioP2
14907;SDS011;7545;52.092;7.006;2022-12-18T00:02:06;32.70;;;16.13;;
14907;SDS011;7545;52.092;7.006;2022-12-18T00:04:31;32.73;;;16.17;;
14907;SDS011;7545;52.092;7.006;2022-12-18T00:06:57;34.10;;;16.73;;
14907;SDS011;7545;52.092;7.006;2022-12-18T00:09:23;29.83;;;15.50;;
14907;SDS011;7545;52.092;7.006;2022-12-18T00:11:49;35.00;;;16.90;;
14907;SDS011;7545;52.092;7.006;2022-12-18T00:14:14;30.70;;;15.10;;
14907;SDS011;7545;52.092;7.006;2022-12-18T00:16:42;33.27;;;15.53;;
14907;SDS011;7545;52.092;7.006;2022-12-18T00:19:09;31.77;;;16.60;;
14907;SDS011;7545;52.092;7.006;2022-12-18T00:21:36;28.17;;;15.70;;
14907;SDS011;7545;52.092;7.006;2022-12-18T00:24:08;28.13;;;15.33;;
14907;SDS011;7545;52.092;7.006;2022-12-18T00:26:34;30.13;;;14.67;;
14907;SDS011;7545;52.092;7.006;2022-12-18T00:29:03;31.57;;;16.13;;
14907;SDS011;7545;52.092;7.006;2022-12-18T00:31:31;31.60;;;16.53;;
14907;SDS011;7545;52.092;7.006;2022-12-18T00:33:57;34.63;;;15.30;;
14907;SDS011;7545;52.092;7.006;2022-12-18T00:36:24;33.33;;;15.60;;
14907;SDS011;7545;52.092;7.006;2022-12-18T00:38:56;27.87;;;15.33;;
14907;SDS011;7545;52.092;7.006;2022-12-18T00:41:22;32.47;;;15.63;;
14907;SDS011;7545;52.092;7.006;2022-12-18T00:44:09;29.70;;;14.00;;
14907;SDS011;7545;52.092;7.006;2022-12-18T00:46:36;32.67;;;15.20;;
14907;SDS011;7545;52.092;7.006;2022-12-18T00:49:02;28.43;;;16.27;;
14907;SDS011;7545;52.092;7.006;2022-12-18T00:51:28;31.63;;;15.93;;
14907;SDS011;7545;52.092;7.006;2022-12-18T00:53:53;25.17;;;13.10;;
14907;SDS011;7545;52.092;7.006;2022-12-18T00:56:22;27.73;;;13.67;;
14907;SDS011;7545;52.092;7.006;2022-12-18T00:58:48;32.20;;;14.27;;
14907;SDS011;7545;52.092;7.006;2022-12-18T01:01:14;28.03;;;15.97;;
14907;SDS011;7545;52.092;7.006;2022-12-18T01:03:40;28.10;;;14.43;;
14907;SDS011;7545;52.092;7.006;2022-12-18T01:06:06;31.00;;;15.40;;
14907;SDS011;7545;52.092;7.006;2022-12-18T01:08:33;29.10;;;15.10;;
14907;SDS011;7545;52.092;7.006;2022-12-18T01:10:59;24.90;;;12.93;;
14907;SDS011;7545;52.092;7.006;2022-12-18T01:13:24;28.77;;;14.83;;
14907;SDS011;7545;52.092;7.006;2022-12-18T01:15:50;25.07;;;12.40;;
14907;SDS011;7545;52.092;7.006;2022-12-18T01:18:16;26.70;;;14.80;;
14907;SDS011;7545;52.092;7.006;2022-12-18T01:20:42;26.87;;;14.00;;
14907;SDS011;7545;52.092;7.006;2022-12-18T01:23:07;24.67;;;14.13;;
14907;SDS011;7545;52.092;7.006;2022-12-18T01:25:35;30.33;;;14.87;;
14907;SDS011;7545;52.092;7.006;2022-12-18T01:28:01;27.27;;;14.30;;
14907;SDS011;7545;52.092;7.006;2022-12-18T01:30:27;26.20;;;13.60;;
14907;SDS011;7545;52.092;7.006;2022-12-18T01:32:53;29.30;;;14.37;;
14907;SDS011;7545;52.092;7.006;2022-12-18T01:35:18;31.40;;;14.73;;
14907;SDS011;7545;52.092;7.006;2022-12-18T01:37:44;24.47;;;13.93;;
14907;SDS011;7545;52.092;7.006;2022-12-18T01:40:10;26.53;;;14.00;;
14907;SDS011;7545;52.092;7.006;2022-12-18T01:42:36;28.73;;;14.63;;
14907;SDS011;7545;52.092;7.006;2022-12-18T01:47:32;24.20;;;12.97;;
14907;SDS011;7545;52.092;7.006;2022-12-18T01:50:03;28.87;;;14.70;;
14907;SDS011;7545;52.092;7.006;2022-12-18T01:52:38;31.63;;;14.17;;
14907;SDS011;7545;52.092;7.006;2022-12-18T01:55:06;26.50;;;13.33;;
14907;SDS011;7545;52.092;7.006;2022-12-18T01:57:33;21.20;;;11.37;;
14907;SDS011;7545;52.092;7.006;2022-12-18T02:00:00;21.23;;;10.93;;
14907;SDS011;7545;52.092;7.006;2022-12-18T02:02:29;23.07;;;12.10;;
14907;SDS011;7545;52.092;7.006;2022-12-18T02:04:55;24.47;;;13.13;;
14907;SDS011;7545;52.092;7.006;2022-12-18T02:07:30;20.07;;;11.57;;
14907;SDS011;7545;52.092;7.006;2022-12-18T02:10:20;21.03;;;11.03;;
14907;SDS011;7545;52.092;7.006;2022-12-18T02:15:23;16.43;;;10.60;;
14907;SDS011;7545;52.092;7.006;2022-12-18T02:17:58;19.67;;;10.63;;
14907;SDS011;7545;52.092;7.006;2022-12-18T02:20:35;20.83;;;12.37;;
14907;SDS011;7545;52.092;7.006;2022-12-18T02:28:30;19.03;;;10.97;;
14907;SDS011;7545;52.092;7.006;2022-12-18T02:31:00;16.90;;;9.80;;
14907;SDS011;7545;52.092;7.006;2022-12-18T02:33:28;20.93;;;10.47;;
14907;SDS011;7545;52.092;7.006;2022-12-18T02:35:55;20.10;;;9.87;;
14907;SDS011;7545;52.092;7.006;2022-12-18T02:38:22;17.20;;;11.13;;
14907;SDS011;7545;52.092;7.006;2022-12-18T02:40:49;15.90;;;10.30;;
14907;SDS011;7545;52.092;7.006;2022-12-18T02:43:17;18.17;;;10.73;;
14907;SDS011;7545;52.092;7.006;2022-12-18T02:48:54;18.63;;;10.60;;
14907;SDS011;7545;52.092;7.006;2022-12-18T02:51:29;18.67;;;10.70;;
14907;SDS011;7545;52.092;7.006;2022-12-18T02:57:14;16.87;;;8.97;;
14907;SDS011;7545;52.092;7.006;2022-12-18T02:59:49;18.10;;;10.40;;
14907;SDS011;7545;52.092;7.006;2022-12-18T03:02:33;19.27;;;9.70;;
14907;SDS011;7545;52.092;7.006;2022-12-18T03:05:20;19.13;;;9.97;;
14907;SDS011;7545;52.092;7.006;2022-12-18T03:07:57;18.03;;;9.03;;
14907;SDS011;7545;52.092;7.006;2022-12-18T03:10:27;17.13;;;10.20;;
14907;SDS011;7545;52.092;7.006;2022-12-18T03:13:06;15.50;;;9.60;;
14907;SDS011;7545;52.092;7.006;2022-12-18T03:15:37;16.17;;;9.00;;
14907;SDS011;7545;52.092;7.006;2022-12-18T03:18:12;16.67;;;9.40;;
14907;SDS011;7545;52.092;7.006;2022-12-18T03:20:42;16.10;;;10.23;;
14907;SDS011;7545;52.092;7.006;2022-12-18T03:23:10;16.57;;;9.17;;
14907;SDS011;7545;52.092;7.006;2022-12-18T03:25:41;14.97;;;8.80;;
14907;SDS011;7545;52.092;7.006;2022-12-18T03:28:15;16.53;;;8.33;;
14907;SDS011;7545;52.092;7.006;2022-12-18T03:30:45;17.97;;;8.90;;
14907;SDS011;7545;52.092;7.006;2022-12-18T03:33:16;18.17;;;9.50;;
14907;SDS011;7545;52.092;7.006;2022-12-18T03:35:50;17.33;;;9.47;;
14907;SDS011;7545;52.092;7.006;2022-12-18T03:38:16;19.03;;;9.37;;
14907;SDS011;7545;52.092;7.006;2022-12-18T03:43:21;16.03;;;8.60;;
14907;SDS011;7545;52.092;7.006;2022-12-18T03:46:05;13.57;;;9.07;;
14907;SDS011;7545;52.092;7.006;2022-12-18T03:48:42;14.43;;;9.43;;
14907;SDS011;7545;52.092;7.006;2022-12-18T03:51:16;15.67;;;9.07;;
14907;SDS011;7545;52.092;7.006;2022-12-18T03:53:51;14.37;;;8.00;;
14907;SDS011;7545;52.092;7.006;2022-12-18T03:56:18;14.60;;;8.87;;
14907;SDS011;7545;52.092;7.006;2022-12-18T03:58:46;16.43;;;8.10;;
14907;SDS011;7545;52.092;7.006;2022-12-18T04:01:15;14.37;;;8.50;;
14907;SDS011;7545;52.092;7.006;2022-12-18T04:03:42;12.03;;;7.80;;
14907;SDS011;7545;52.092;7.006;2022-12-18T04:06:09;15.50;;;8.47;;
14907;SDS011;7545;52.092;7.006;2022-12-18T04:08:36;13.50;;;8.63;;
14907;SDS011;7545;52.092;7.006;2022-12-18T04:11:03;13.00;;;8.17;;
14907;SDS011;7545;52.092;7.006;2022-12-18T04:13:30;14.67;;;9.10;;
14907;SDS011;7545;52.092;7.006;2022-12-18T04:16:00;14.47;;;8.43;;
14907;SDS011;7545;52.092;7.006;2022-12-18T04:18:26;12.73;;;8.40;;
14907;SDS011;7545;52.092;7.006;2022-12-18T04:20:51;13.77;;;8.00;;
14907;SDS011;7545;52.092;7.006;2022-12-18T04:23:17;16.60;;;9.67;;
14907;SDS011;7545;52.092;7.006;2022-12-18T04:25:43;14.00;;;8.23;;
14907;SDS011;7545;52.092;7.006;2022-12-18T04:28:08;15.00;;;7.60;;
14907;SDS011;7545;52.092;7.006;2022-12-18T04:30:34;14.47;;;8.27;;
14907;SDS011;7545;52.092;7.006;2022-12-18T04:33:00;17.80;;;9.87;;
14907;SDS011;7545;52.092;7.006;2022-12-18T04:35:25;14.50;;;8.30;;
14907;SDS011;7545;52.092;7.006;2022-12-18T04:37:51;15.07;;;8.17;;
14907;SDS011;7545;52.092;7.006;2022-12-18T04:40:16;14.13;;;7.97;;
14907;SDS011;7545;52.092;7.006;2022-12-18T04:42:42;15.67;;;8.10;;
14907;SDS011;7545;52.092;7.006;2022-12-18T04:45:08;35.17;;;9.00;;
14907;SDS011;7545;52.092;7.006;2022-12-18T04:47:33;14.60;;;8.47;;
14907;SDS011;7545;52.092;7.006;2022-12-18T04:49:59;14.53;;;8.10;;
14907;SDS011;7545;52.092;7.006;2022-12-18T04:52:25;14.00;;;9.07;;
14907;SDS011;7545;52.092;7.006;2022-12-18T04:54:50;12.40;;;8.27;;
14907;SDS011;7545;52.092;7.006;2022-12-18T04:57:16;16.73;;;8.07;;
14907;SDS011;7545;52.092;7.006;2022-12-18T04:59:43;16.43;;;9.17;;
14907;SDS011;7545;52.092;7.006;2022-12-18T05:02:09;13.63;;;8.13;;
14907;SDS011;7545;52.092;7.006;2022-12-18T05:04:34;15.23;;;8.17;;
14907;SDS011;7545;52.092;7.006;2022-12-18T05:07:00;16.90;;;9.17;;
14907;SDS011;7545;52.092;7.006;2022-12-18T05:09:25;13.97;;;7.90;;
14907;SDS011;7545;52.092;7.006;2022-12-18T05:11:51;13.53;;;7.70;;
14907;SDS011;7545;52.092;7.006;2022-12-18T05:14:16;15.60;;;8.43;;
14907;SDS011;7545;52.092;7.006;2022-12-18T05:16:42;12.23;;;7.57;;
14907;SDS011;7545;52.092;7.006;2022-12-18T05:19:08;14.47;;;8.37;;
14907;SDS011;7545;52.092;7.006;2022-12-18T05:21:33;14.97;;;8.67;;
14907;SDS011;7545;52.092;7.006;2022-12-18T05:23:59;15.00;;;8.07;;
14907;SDS011;7545;52.092;7.006;2022-12-18T05:26:24;14.93;;;8.27;;
14907;SDS011;7545;52.092;7.006;2022-12-18T05:28:50;12.97;;;7.77;;
14907;SDS011;7545;52.092;7.006;2022-12-18T05:31:16;15.93;;;7.50;;
14907;SDS011;7545;52.092;7.006;2022-12-18T05:33:41;12.53;;;7.53;;
14907;SDS011;7545;52.092;7.006;2022-12-18T05:36:07;14.93;;;7.57;;
14907;SDS011;7545;52.092;7.006;2022-12-18T05:38:35;14.93;;;8.93;;
14907;SDS011;7545;52.092;7.006;2022-12-18T05:41:02;11.90;;;7.60;;
14907;SDS011;7545;52.092;7.006;2022-12-18T05:43:28;13.33;;;7.87;;
14907;SDS011;7545;52.092;7.006;2022-12-18T05:45:54;12.27;;;7.20;;
14907;SDS011;7545;52.092;7.006;2022-12-18T05:48:20;11.93;;;6.67;;
14907;SDS011;7545;52.092;7.006;2022-12-18T05:50:47;13.13;;;7.17;;
14907;SDS011;7545;52.092;7.006;2022-12-18T05:53:15;13.03;;;7.53;;
14907;SDS011;7545;52.092;7.006;2022-12-18T05:55:42;11.17;;;6.93;;
14907;SDS011;7545;52.092;7.006;2022-12-18T05:58:08;12.37;;;6.97;;
14907;SDS011;7545;52.092;7.006;2022-12-18T06:00:36;10.30;;;6.97;;
14907;SDS011;7545;52.092;7.006;2022-12-18T06:03:07;13.73;;;7.87;;
14907;SDS011;7545;52.092;7.006;2022-12-18T06:05:36;13.10;;;7.67;;
14907;SDS011;7545;52.092;7.006;2022-12-18T06:08:03;12.43;;;6.60;;
14907;SDS011;7545;52.092;7.006;2022-12-18T06:10:29;12.33;;;6.80;;
14907;SDS011;7545;52.092;7.006;2022-12-18T06:12:55;15.67;;;7.93;;
14907;SDS011;7545;52.092;7.006;2022-12-18T06:15:20;11.77;;;7.23;;
14907;SDS011;7545;52.092;7.006;2022-12-18T06:17:46;14.87;;;7.20;;
14907;SDS011;7545;52.092;7.006;2022-12-18T06:20:12;15.33;;;7.43;;
14907;SDS011;7545;52.092;7.006;2022-12-18T06:22:37;13.47;;;7.37;;
14907;SDS011;7545;52.092;7.006;2022-12-18T06:25:03;13.10;;;6.20;;
14907;SDS011;7545;52.092;7.006;2022-12-18T06:27:29;11.37;;;7.13;;
14907;SDS011;7545;52.092;7.006;2022-12-18T06:29:55;15.97;;;8.30;;
14907;SDS011;7545;52.092;7.006;2022-12-18T06:32:20;12.23;;;6.73;;
14907;SDS011;7545;52.092;7.006;2022-12-18T06:34:46;12.87;;;6.63;;
14907;SDS011;7545;52.092;7.006;2022-12-18T06:37:11;11.17;;;6.07;;
14907;SDS011;7545;52.092;7.006;2022-12-18T06:39:37;12.90;;;6.33;;
14907;SDS011;7545;52.092;7.006;2022-12-18T06:42:03;13.97;;;7.53;;
14907;SDS011;7545;52.092;7.006;2022-12-18T06:44:28;12.37;;;6.63;;
14907;SDS011;7545;52.092;7.006;2022-12-18T06:46:54;11.37;;;6.90;;
14907;SDS011;7545;52.092;7.006;2022-12-18T06:49:20;10.53;;;6.90;;
14907;SDS011;7545;52.092;7.006;2022-12-18T06:51:46;10.80;;;7.23;;
14907;SDS011;7545;52.092;7.006;2022-12-18T06:54:12;9.17;;;6.27;;
14907;SDS011;7545;52.092;7.006;2022-12-18T06:56:37;9.93;;;6.03;;
14907;SDS011;7545;52.092;7.006;2022-12-18T06:59:03;11.77;;;6.57;;
14907;SDS011;7545;52.092;7.006;2022-12-18T07:01:29;13.87;;;8.43;;
14907;SDS011;7545;52.092;7.006;2022-12-18T07:03:55;12.13;;;6.47;;
14907;SDS011;7545;52.092;7.006;2022-12-18T07:06:22;12.93;;;6.80;;
14907;SDS011;7545;52.092;7.006;2022-12-18T07:08:49;12.17;;;6.47;;
14907;SDS011;7545;52.092;7.006;2022-12-18T07:11:16;12.00;;;6.47;;
14907;SDS011;7545;52.092;7.006;2022-12-18T07:13:42;13.67;;;7.97;;
14907;SDS011;7545;52.092;7.006;2022-12-18T07:16:10;11.10;;;5.70;;
14907;SDS011;7545;52.092;7.006;2022-12-18T07:18:37;11.43;;;6.60;;
14907;SDS011;7545;52.092;7.006;2022-12-18T07:21:03;10.10;;;6.23;;
14907;SDS011;7545;52.092;7.006;2022-12-18T07:23:33;10.33;;;6.20;;
14907;SDS011;7545;52.092;7.006;2022-12-18T07:26:00;9.37;;;6.43;;
14907;SDS011;7545;52.092;7.006;2022-12-18T07:28:30;13.20;;;6.67;;
14907;SDS011;7545;52.092;7.006;2022-12-18T07:30:57;9.23;;;5.87;;
14907;SDS011;7545;52.092;7.006;2022-12-18T07:33:24;10.10;;;6.23;;
14907;SDS011;7545;52.092;7.006;2022-12-18T07:35:50;9.63;;;6.93;;
14907;SDS011;7545;52.092;7.006;2022-12-18T07:38:16;9.43;;;5.53;;
14907;SDS011;7545;52.092;7.006;2022-12-18T07:40:41;11.40;;;6.13;;
14907;SDS011;7545;52.092;7.006;2022-12-18T07:43:07;7.90;;;5.60;;
14907;SDS011;7545;52.092;7.006;2022-12-18T07:45:32;10.03;;;7.33;;
14907;SDS011;7545;52.092;7.006;2022-12-18T07:47:58;12.13;;;6.63;;
14907;SDS011;7545;52.092;7.006;2022-12-18T07:50:23;9.10;;;6.20;;
14907;SDS011;7545;52.092;7.006;2022-12-18T07:52:49;9.87;;;6.07;;
14907;SDS011;7545;52.092;7.006;2022-12-18T07:55:14;11.00;;;6.20;;
14907;SDS011;7545;52.092;7.006;2022-12-18T07:57:40;8.53;;;5.53;;
14907;SDS011;7545;52.092;7.006;2022-12-18T08:00:06;10.23;;;6.40;;
14907;SDS011;7545;52.092;7.006;2022-12-18T08:02:34;10.87;;;7.27;;
14907;SDS011;7545;52.092;7.006;2022-12-18T08:04:59;12.90;;;8.27;;
14907;SDS011;7545;52.092;7.006;2022-12-18T08:07:25;12.20;;;7.67;;
14907;SDS011;7545;52.092;7.006;2022-12-18T08:09:50;12.33;;;8.47;;
14907;SDS011;7545;52.092;7.006;2022-12-18T08:12:16;16.07;;;9.97;;
14907;SDS011;7545;52.092;7.006;2022-12-18T08:14:41;21.13;;;13.63;;
14907;SDS011;7545;52.092;7.006;2022-12-18T08:17:07;23.87;;;16.47;;
14907;SDS011;7545;52.092;7.006;2022-12-18T08:19:32;31.80;;;18.40;;
14907;SDS011;7545;52.092;7.006;2022-12-18T08:21:58;23.33;;;15.23;;
14907;SDS011;7545;52.092;7.006;2022-12-18T08:24:24;20.37;;;13.23;;
14907;SDS011;7545;52.092;7.006;2022-12-18T08:26:49;16.93;;;11.77;;
14907;SDS011;7545;52.092;7.006;2022-12-18T08:29:15;18.83;;;11.67;;
14907;SDS011;7545;52.092;7.006;2022-12-18T08:31:41;13.47;;;9.70;;
14907;SDS011;7545;52.092;7.006;2022-12-18T08:34:07;12.77;;;9.03;;
14907;SDS011;7545;52.092;7.006;2022-12-18T08:36:33;16.27;;;8.97;;
14907;SDS011;7545;52.092;7.006;2022-12-18T08:38:59;10.17;;;7.37;;
14907;SDS011;7545;52.092;7.006;2022-12-18T08:41:24;12.70;;;6.00;;
14907;SDS011;7545;52.092;7.006;2022-12-18T08:43:50;7.63;;;5.27;;
14907;SDS011;7545;52.092;7.006;2022-12-18T08:46:36;7.30;;;5.63;;
14907;SDS011;7545;52.092;7.006;2022-12-18T08:49:06;8.90;;;5.97;;
14907;SDS011;7545;52.092;7.006;2022-12-18T08:51:33;8.37;;;5.70;;
14907;SDS011;7545;52.092;7.006;2022-12-18T08:53:59;8.33;;;5.73;;
14907;SDS011;7545;52.092;7.006;2022-12-18T08:56:25;9.80;;;6.07;;
14907;SDS011;7545;52.092;7.006;2022-12-18T08:58:51;9.90;;;5.90;;
14907;SDS011;7545;52.092;7.006;2022-12-18T09:01:18;8.63;;;5.77;;
14907;SDS011;7545;52.092;7.006;2022-12-18T09:03:47;6.77;;;5.40;;
14907;SDS011;7545;52.092;7.006;2022-12-18T09:06:16;9.90;;;5.90;;
14907;SDS011;7545;52.092;7.006;2022-12-18T09:08:43;8.17;;;5.60;;
14907;SDS011;7545;52.092;7.006;2022-12-18T09:11:30;10.40;;;5.43;;
14907;SDS011;7545;52.092;7.006;2022-12-18T09:13:56;9.47;;;5.27;;
14907;SDS011;7545;52.092;7.006;2022-12-18T09:16:23;10.93;;;7.20;;
14907;SDS011;7545;52.092;7.006;2022-12-18T09:18:49;11.87;;;6.83;;
14907;SDS011;7545;52.092;7.006;2022-12-18T09:21:16;13.30;;;8.67;;
14907;SDS011;7545;52.092;7.006;2022-12-18T09:23:44;15.93;;;9.20;;
14907;SDS011;7545;52.092;7.006;2022-12-18T09:26:14;20.67;;;11.47;;
14907;SDS011;7545;52.092;7.006;2022-12-18T09:28:39;16.77;;;9.13;;
14907;SDS011;7545;52.092;7.006;2022-12-18T09:31:06;18.40;;;9.20;;
14907;SDS011;7545;52.092;7.006;2022-12-18T09:33:32;15.43;;;8.63;;
14907;SDS011;7545;52.092;7.006;2022-12-18T09:36:00;12.77;;;8.10;;
14907;SDS011;7545;52.092;7.006;2022-12-18T09:38:28;15.50;;;7.37;;
14907;SDS011;7545;52.092;7.006;2022-12-18T09:40:55;12.47;;;7.87;;
14907;SDS011;7545;52.092;7.006;2022-12-18T09:43:30;11.50;;;8.30;;
14907;SDS011;7545;52.092;7.006;2022-12-18T09:46:06;12.70;;;8.40;;
14907;SDS011;7545;52.092;7.006;2022-12-18T09:48:35;11.57;;;6.87;;
14907;SDS011;7545;52.092;7.006;2022-12-18T09:51:29;8.23;;;5.87;;
14907;SDS011;7545;52.092;7.006;2022-12-18T09:54:04;9.10;;;6.30;;
14907;SDS011;7545;52.092;7.006;2022-12-18T09:56:51;9.30;;;5.13;;
14907;SDS011;7545;52.092;7.006;2022-12-18T09:59:21;9.37;;;5.50;;
14907;SDS011;7545;52.092;7.006;2022-12-18T10:02:05;6.10;;;4.17;;
14907;SDS011;7545;52.092;7.006;2022-12-18T10:07:41;8.33;;;5.13;;
14907;SDS011;7545;52.092;7.006;2022-12-18T10:16:07;7.60;;;5.43;;
14907;SDS011;7545;52.092;7.006;2022-12-18T10:21:32;7.70;;;5.10;;
14907;SDS011;7545;52.092;7.006;2022-12-18T10:27:16;7.83;;;4.13;;
14907;SDS011;7545;52.092;7.006;2022-12-18T10:29:46;7.97;;;5.37;;
14907;SDS011;7545;52.092;7.006;2022-12-18T10:32:15;7.90;;;5.10;;
14907;SDS011;7545;52.092;7.006;2022-12-18T10:34:48;7.33;;;5.77;;
14907;SDS011;7545;52.092;7.006;2022-12-18T10:37:19;6.87;;;5.93;;
14907;SDS011;7545;52.092;7.006;2022-12-18T10:39:46;8.57;;;6.00;;
14907;SDS011;7545;52.092;7.006;2022-12-18T10:42:31;9.73;;;5.90;;
14907;SDS011;7545;52.092;7.006;2022-12-18T10:45:15;7.30;;;5.23;;
14907;SDS011;7545;52.092;7.006;2022-12-18T10:47:45;9.40;;;5.80;;
14907;SDS011;7545;52.092;7.006;2022-12-18T10:50:28;7.30;;;5.60;;
14907;SDS011;7545;52.092;7.006;2022-12-18T10:52:57;8.40;;;5.53;;
14907;SDS011;7545;52.092;7.006;2022-12-18T10:55:33;8.37;;;7.00;;
14907;SDS011;7545;52.092;7.006;2022-12-18T11:00:47;16.50;;;9.20;;
14907;SDS011;7545;52.092;7.006;2022-12-18T11:03:43;10.20;;;6.63;;
14907;SDS011;7545;52.092;7.006;2022-12-18T11:06:15;13.63;;;7.57;;
14907;SDS011;7545;52.092;7.006;2022-12-18T11:08:42;14.03;;;7.33;;
14907;SDS011;7545;52.092;7.006;2022-12-18T11:11:42;10.07;;;6.70;;
14907;SDS011;7545;52.092;7.006;2022-12-18T11:14:03;11.33;;;7.43;;
14907;SDS011;7545;52.092;7.006;2022-12-18T11:16:33;8.23;;;6.20;;
14907;SDS011;7545;52.092;7.006;2022-12-18T11:22:01;8.90;;;5.53;;
14907;SDS011;7545;52.092;7.006;2022-12-18T11:24:55;8.07;;;5.27;;
14907;SDS011;7545;52.092;7.006;2022-12-18T11:27:21;6.07;;;4.37;;
14907;SDS011;7545;52.092;7.006;2022-12-18T11:29:47;8.33;;;5.87;;
14907;SDS011;7545;52.092;7.006;2022-12-18T11:35:19;9.40;;;5.77;;
14907;SDS011;7545;52.092;7.006;2022-12-18T11:37:50;8.43;;;6.17;;
14907;SDS011;7545;52.092;7.006;2022-12-18T11:40:26;9.67;;;5.77;;
14907;SDS011;7545;52.092;7.006;2022-12-18T11:45:54;9.17;;;7.20;;
14907;SDS011;7545;52.092;7.006;2022-12-18T11:48:27;11.00;;;6.67;;
14907;SDS011;7545;52.092;7.006;2022-12-18T11:51:09;11.03;;;7.90;;
14907;SDS011;7545;52.092;7.006;2022-12-18T11:53:39;12.63;;;7.63;;
14907;SDS011;7545;52.092;7.006;2022-12-18T12:01:19;7.17;;;5.60;;
14907;SDS011;7545;52.092;7.006;2022-12-18T12:03:50;8.97;;;5.43;;
14907;SDS011;7545;52.092;7.006;2022-12-18T12:06:28;10.43;;;6.20;;
14907;SDS011;7545;52.092;7.006;2022-12-18T12:12:13;8.70;;;6.33;;
14907;SDS011;7545;52.092;7.006;2022-12-18T12:21:11;12.27;;;8.13;;
14907;SDS011;7545;52.092;7.006;2022-12-18T12:26:16;15.73;;;10.13;;
14907;SDS011;7545;52.092;7.006;2022-12-18T12:31:32;12.53;;;8.37;;
14907;SDS011;7545;52.092;7.006;2022-12-18T12:37:01;9.60;;;6.17;;
14907;SDS011;7545;52.092;7.006;2022-12-18T12:39:49;8.30;;;5.97;;
14907;SDS011;7545;52.092;7.006;2022-12-18T12:45:14;6.73;;;5.23;;
14907;SDS011;7545;52.092;7.006;2022-12-18T12:47:49;11.20;;;5.20;;
14907;SDS011;7545;52.092;7.006;2022-12-18T12:50:18;7.20;;;5.37;;
14907;SDS011;7545;52.092;7.006;2022-12-18T12:52:47;7.00;;;5.17;;
14907;SDS011;7545;52.092;7.006;2022-12-18T12:55:27;8.50;;;4.90;;
14907;SDS011;7545;52.092;7.006;2022-12-18T13:00:27;6.77;;;5.07;;
14907;SDS011;7545;52.092;7.006;2022-12-18T13:03:03;7.40;;;4.80;;
14907;SDS011;7545;52.092;7.006;2022-12-18T13:05:34;8.07;;;5.13;;
14907;SDS011;7545;52.092;7.006;2022-12-18T13:08:10;7.10;;;5.10;;
14907;SDS011;7545;52.092;7.006;2022-12-18T13:10:46;9.10;;;6.10;;
14907;SDS011;7545;52.092;7.006;2022-12-18T13:13:15;9.20;;;5.87;;
14907;SDS011;7545;52.092;7.006;2022-12-18T13:15:48;7.37;;;5.70;;
14907;SDS011;7545;52.092;7.006;2022-12-18T13:18:28;5.47;;;4.70;;
14907;SDS011;7545;52.092;7.006;2022-12-18T13:36:43;10.77;;;6.53;;
14907;SDS011;7545;52.092;7.006;2022-12-18T13:41:41;8.63;;;6.10;;
14907;SDS011;7545;52.092;7.006;2022-12-18T13:46:59;7.40;;;6.13;;
14907;SDS011;7545;52.092;7.006;2022-12-18T13:49:40;12.57;;;7.63;;
14907;SDS011;7545;52.092;7.006;2022-12-18T13:52:15;13.67;;;8.83;;
14907;SDS011;7545;52.092;7.006;2022-12-18T13:54:49;9.73;;;7.83;;
14907;SDS011;7545;52.092;7.006;2022-12-18T14:00:44;13.17;;;8.83;;
14907;SDS011;7545;52.092;7.006;2022-12-18T14:02:50;11.23;;;7.00;;
14907;SDS011;7545;52.092;7.006;2022-12-18T14:07:55;12.03;;;8.03;;
14907;SDS011;7545;52.092;7.006;2022-12-18T14:10:26;10.80;;;6.67;;
14907;SDS011;7545;52.092;7.006;2022-12-18T14:12:52;9.27;;;6.57;;
14907;SDS011;7545;52.092;7.006;2022-12-18T14:17:50;9.10;;;6.00;;
14907;SDS011;7545;52.092;7.006;2022-12-18T14:20:18;8.57;;;5.43;;
14907;SDS011;7545;52.092;7.006;2022-12-18T14:22:48;11.67;;;7.57;;
14907;SDS011;7545;52.092;7.006;2022-12-18T14:25:19;12.60;;;7.87;;
14907;SDS011;7545;52.092;7.006;2022-12-18T14:27:49;12.40;;;7.83;;
14907;SDS011;7545;52.092;7.006;2022-12-18T14:30:29;12.47;;;7.40;;
14907;SDS011;7545;52.092;7.006;2022-12-18T14:33:04;11.70;;;8.03;;
14907;SDS011;7545;52.092;7.006;2022-12-18T14:35:34;13.50;;;8.73;;
14907;SDS011;7545;52.092;7.006;2022-12-18T14:40:54;9.10;;;6.27;;
14907;SDS011;7545;52.092;7.006;2022-12-18T14:43:24;11.97;;;7.70;;
14907;SDS011;7545;52.092;7.006;2022-12-18T14:45:51;11.77;;;6.93;;
14907;SDS011;7545;52.092;7.006;2022-12-18T14:50:57;10.33;;;7.70;;
14907;SDS011;7545;52.092;7.006;2022-12-18T14:53:45;10.30;;;7.20;;
14907;SDS011;7545;52.092;7.006;2022-12-18T14:56:17;10.90;;;6.93;;
14907;SDS011;7545;52.092;7.006;2022-12-18T14:58:50;9.63;;;7.20;;
14907;SDS011;7545;52.092;7.006;2022-12-18T15:01:22;13.57;;;7.70;;
14907;SDS011;7545;52.092;7.006;2022-12-18T15:03:53;11.60;;;7.53;;
14907;SDS011;7545;52.092;7.006;2022-12-18T15:06:27;10.60;;;8.30;;
14907;SDS011;7545;52.092;7.006;2022-12-18T15:08:55;11.90;;;8.70;;
14907;SDS011;7545;52.092;7.006;2022-12-18T15:11:26;11.23;;;7.43;;
14907;SDS011;7545;52.092;7.006;2022-12-18T15:14:40;11.30;;;8.47;;
14907;SDS011;7545;52.092;7.006;2022-12-18T15:17:14;12.43;;;8.30;;
14907;SDS011;7545;52.092;7.006;2022-12-18T15:19:46;9.83;;;7.77;;
14907;SDS011;7545;52.092;7.006;2022-12-18T15:24:50;10.30;;;8.03;;
14907;SDS011;7545;52.092;7.006;2022-12-18T15:27:23;12.70;;;7.60;;
14907;SDS011;7545;52.092;7.006;2022-12-18T15:32:35;13.27;;;7.73;;
14907;SDS011;7545;52.092;7.006;2022-12-18T15:37:44;11.00;;;8.13;;
14907;SDS011;7545;52.092;7.006;2022-12-18T15:40:18;8.77;;;7.40;;
14907;SDS011;7545;52.092;7.006;2022-12-18T15:42:49;9.13;;;6.13;;
14907;SDS011;7545;52.092;7.006;2022-12-18T15:45:37;9.60;;;6.20;;
14907;SDS011;7545;52.092;7.006;2022-12-18T15:48:14;9.40;;;6.30;;
14907;SDS011;7545;52.092;7.006;2022-12-18T15:50:45;12.00;;;6.63;;
14907;SDS011;7545;52.092;7.006;2022-12-18T15:53:11;11.17;;;6.63;;
14907;SDS011;7545;52.092;7.006;2022-12-18T15:55:36;9.33;;;7.33;;
14907;SDS011;7545;52.092;7.006;2022-12-18T15:58:21;9.10;;;6.70;;
14907;SDS011;7545;52.092;7.006;2022-12-18T16:00:47;13.43;;;7.70;;
14907;SDS011;7545;52.092;7.006;2022-12-18T16:03:12;8.27;;;6.37;;
14907;SDS011;7545;52.092;7.006;2022-12-18T16:05:38;12.50;;;7.87;;
14907;SDS011;7545;52.092;7.006;2022-12-18T16:08:04;10.70;;;7.80;;
14907;SDS011;7545;52.092;7.006;2022-12-18T16:10:29;10.77;;;7.30;;
14907;SDS011;7545;52.092;7.006;2022-12-18T16:12:55;13.23;;;8.40;;
14907;SDS011;7545;52.092;7.006;2022-12-18T16:15:21;13.40;;;8.10;;
14907;SDS011;7545;52.092;7.006;2022-12-18T16:17:47;10.73;;;7.70;;
14907;SDS011;7545;52.092;7.006;2022-12-18T16:20:17;10.43;;;7.47;;
14907;SDS011;7545;52.092;7.006;2022-12-18T16:22:45;10.77;;;6.73;;
14907;SDS011;7545;52.092;7.006;2022-12-18T16:25:25;10.17;;;6.43;;
14907;SDS011;7545;52.092;7.006;2022-12-18T16:27:53;8.37;;;5.83;;
14907;SDS011;7545;52.092;7.006;2022-12-18T16:30:22;7.53;;;6.00;;
14907;SDS011;7545;52.092;7.006;2022-12-18T16:32:51;8.37;;;6.13;;
14907;SDS011;7545;52.092;7.006;2022-12-18T16:35:17;12.70;;;8.23;;
14907;SDS011;7545;52.092;7.006;2022-12-18T16:37:42;10.27;;;7.60;;
14907;SDS011;7545;52.092;7.006;2022-12-18T16:40:09;14.67;;;7.57;;
14907;SDS011;7545;52.092;7.006;2022-12-18T16:42:38;11.47;;;7.73;;
14907;SDS011;7545;52.092;7.006;2022-12-18T16:45:05;11.00;;;7.87;;
14907;SDS011;7545;52.092;7.006;2022-12-18T16:47:32;13.00;;;7.83;;
14907;SDS011;7545;52.092;7.006;2022-12-18T16:49:58;12.43;;;7.73;;
14907;SDS011;7545;52.092;7.006;2022-12-18T16:52:24;11.00;;;7.50;;
14907;SDS011;7545;52.092;7.006;2022-12-18T16:54:49;10.17;;;6.67;;
14907;SDS011;7545;52.092;7.006;2022-12-18T16:57:16;10.60;;;6.70;;
14907;SDS011;7545;52.092;7.006;2022-12-18T16:59:43;12.67;;;8.00;;